Time;durP1;ratioP1;P1;durP2;ratioP2;P2;SDS_P1;SDS_P2;PMS_P1;PMS_P2;Temp;Humidity;BMP_temperature;BMP_pressure;BME280_temperature;BME280_humidity;BME280_pressure;Samples;Min_cycle;Max_cycle;Signal;HPM_P1;HPM_P2
2022/07/18 00:00:26;;;;;;;;;;;27.80;37.40;;;;;;8363450;28;20004;-44
2022/07/18 00:04:26;;;;;;;;;;;27.80;37.40;;;;;;8363399;28;20389;-44
2022/07/18 00:08:26;;;;;;;;;;;27.80;37.40;;;;;;8362996;28;19924;-44
2022/07/18 00:12:27;;;;;;;;;;;27.80;37.40;;;;;;8363207;28;19936;-45
2022/07/18 00:16:28;;;;;;;;;;;27.80;37.40;;;;;;8363156;28;20400;-44
2022/07/18 00:20:29;;;;;;;;;;;27.80;37.40;;;;;;8362676;28;20335;-43
2022/07/18 00:24:31;;;;;;;;;;;27.80;37.40;;;;;;8363339;28;19913;-44
2022/07/18 00:28:32;;;;;;;;;;;27.80;37.40;;;;;;8362755;28;19994;-44
2022/07/18 00:32:32;;;;;;;;;;;27.80;37.50;;;;;;8362743;28;19933;-43
2022/07/18 00:36:33;;;;;;;;;;;27.70;37.40;;;;;;8362960;28;19921;-44
2022/07/18 00:40:33;;;;;;;;;;;27.70;37.40;;;;;;8362380;28;19920;-43
2022/07/18 00:44:34;;;;;;;;;;;27.70;37.40;;;;;;8366455;28;19920;-43
2022/07/18 00:48:34;;;;;;;;;;;27.70;37.40;;;;;;8369335;28;19917;-44
2022/07/18 00:52:36;;;;;;;;;;;27.70;37.40;;;;;;8368384;28;20366;-44
2022/07/18 00:56:36;;;;;;;;;;;27.60;37.30;;;;;;8369322;28;19951;-44
2022/07/18 01:04:56;;;;;;;;;;;27.60;37.30;;;;;;8369043;28;20000;-44
2022/07/18 01:08:57;;;;;;;;;;;27.60;37.40;;;;;;8368972;28;20389;-44
2022/07/18 01:12:57;;;;;;;;;;;27.60;37.30;;;;;;8368475;28;19925;-43
2022/07/18 01:16:58;;;;;;;;;;;27.60;37.40;;;;;;8368063;28;19923;-44
2022/07/18 01:20:58;;;;;;;;;;;27.60;37.40;;;;;;8368706;28;19917;-44
2022/07/18 01:24:59;;;;;;;;;;;27.60;37.40;;;;;;8368283;28;19920;-43
2022/07/18 01:28:59;;;;;;;;;;;27.60;37.40;;;;;;8367934;28;19913;-43
2022/07/18 01:33:01;;;;;;;;;;;27.50;37.30;;;;;;8368266;28;19929;-43
2022/07/18 01:37:02;;;;;;;;;;;27.60;37.40;;;;;;8367969;28;19925;-44
2022/07/18 01:41:02;;;;;;;;;;;27.50;37.40;;;;;;8367128;28;19928;-43
2022/07/18 01:45:03;;;;;;;;;;;27.50;37.30;;;;;;8367672;28;19996;-43
2022/07/18 01:49:03;;;;;;;;;;;27.50;37.40;;;;;;8367711;28;19920;-43
2022/07/18 01:53:04;;;;;;;;;;;27.50;37.30;;;;;;8366864;28;20024;-43
2022/07/18 01:57:05;;;;;;;;;;;27.50;37.40;;;;;;8366861;28;20340;-44
2022/07/18 02:01:05;;;;;;;;;;;27.40;37.30;;;;;;8367057;28;19916;-44
2022/07/18 02:05:06;;;;;;;;;;;27.40;37.30;;;;;;8366691;28;19912;-44
2022/07/18 02:09:07;;;;;;;;;;;27.40;37.40;;;;;;8367155;28;20000;-44
2022/07/18 02:13:08;;;;;;;;;;;27.40;37.40;;;;;;8366661;28;20421;-44
2022/07/18 02:17:08;;;;;;;;;;;27.40;37.40;;;;;;8366129;28;20007;-44
2022/07/18 02:21:09;;;;;;;;;;;27.40;37.40;;;;;;8366834;28;20365;-43
2022/07/18 02:25:09;;;;;;;;;;;27.40;37.40;;;;;;8366686;28;19959;-42
2022/07/18 02:29:10;;;;;;;;;;;27.40;37.40;;;;;;8347928;28;19920;-43
2022/07/18 02:33:10;;;;;;;;;;;27.40;37.40;;;;;;8365836;28;20309;-44
2022/07/18 02:37:11;;;;;;;;;;;27.40;37.40;;;;;;8366020;28;20376;-44
2022/07/18 02:41:11;;;;;;;;;;;27.30;37.40;;;;;;8365333;28;19917;-43
2022/07/18 02:45:12;;;;;;;;;;;27.30;37.40;;;;;;8366032;28;19917;-44
2022/07/18 02:49:26;;;;;;;;;;;27.30;37.40;;;;;;8365736;28;19917;-43
2022/07/18 02:53:26;;;;;;;;;;;27.30;37.40;;;;;;8365279;28;20293;-44
2022/07/18 02:57:27;;;;;;;;;;;27.30;37.40;;;;;;8365429;28;19924;-44
2022/07/18 03:01:28;;;;;;;;;;;27.30;37.40;;;;;;8365355;28;19917;-43
2022/07/18 03:05:28;;;;;;;;;;;27.30;37.40;;;;;;8364422;28;19921;-43
2022/07/18 03:09:30;;;;;;;;;;;27.30;37.40;;;;;;8364718;28;19924;-43
2022/07/18 03:13:30;;;;;;;;;;;27.20;37.30;;;;;;8364944;28;20012;-42
2022/07/18 03:17:31;;;;;;;;;;;27.30;37.40;;;;;;8364128;28;19928;-43
2022/07/18 03:21:31;;;;;;;;;;;27.20;37.40;;;;;;8364961;28;20004;-44
2022/07/18 03:25:32;;;;;;;;;;;27.20;37.40;;;;;;8364367;28;19913;-42
2022/07/18 03:29:32;;;;;;;;;;;27.20;37.40;;;;;;8364305;28;19920;-43
2022/07/18 03:33:33;;;;;;;;;;;27.20;37.40;;;;;;8363987;28;20434;-43
2022/07/18 03:37:33;;;;;;;;;;;27.20;37.40;;;;;;8363575;28;19917;-44
2022/07/18 03:41:34;;;;;;;;;;;27.20;37.40;;;;;;8364344;28;19979;-43
2022/07/18 03:45:34;;;;;;;;;;;27.20;37.50;;;;;;8364289;28;19913;-43
2022/07/18 03:49:35;;;;;;;;;;;27.10;37.40;;;;;;8363285;28;19978;-43
2022/07/18 03:53:35;;;;;;;;;;;27.10;37.40;;;;;;8363468;28;19924;-43
2022/07/18 03:57:36;;;;;;;;;;;27.10;37.40;;;;;;8363470;28;20010;-44
2022/07/18 04:01:36;;;;;;;;;;;27.10;37.40;;;;;;8361827;28;20266;-43
2022/07/18 04:05:36;;;;;;;;;;;27.10;37.50;;;;;;8363566;28;20278;-44
2022/07/18 04:09:37;;;;;;;;;;;27.10;37.50;;;;;;8363222;28;19917;-44
2022/07/18 04:13:37;;;;;;;;;;;27.00;37.30;;;;;;8362824;28;19979;-43
2022/07/18 04:17:38;;;;;;;;;;;27.10;37.40;;;;;;8362931;28;19924;-44
2022/07/18 04:21:38;;;;;;;;;;;27.10;37.50;;;;;;8363253;28;19940;-42
2022/07/18 04:25:40;;;;;;;;;;;27.00;37.40;;;;;;8362576;28;19922;-43
2022/07/18 04:29:42;;;;;;;;;;;27.00;37.40;;;;;;8363075;28;19924;-43
2022/07/18 04:33:42;;;;;;;;;;;27.00;37.40;;;;;;8362780;28;19994;-44
2022/07/18 04:37:43;;;;;;;;;;;27.00;37.40;;;;;;8362388;28;19986;-44
2022/07/18 04:41:43;;;;;;;;;;;27.00;37.40;;;;;;8362675;28;19925;-44
2022/07/18 04:45:44;;;;;;;;;;;27.00;37.40;;;;;;8362880;28;19917;-44
2022/07/18 04:49:44;;;;;;;;;;;26.90;37.30;;;;;;8362302;28;20008;-43
2022/07/18 04:53:44;;;;;;;;;;;26.90;37.30;;;;;;8362363;28;19929;-43
2022/07/18 04:57:45;;;;;;;;;;;26.90;37.40;;;;;;8362650;28;20008;-43
2022/07/18 05:01:45;;;;;;;;;;;26.90;37.40;;;;;;8361833;28;19923;-43
2022/07/18 05:05:46;;;;;;;;;;;26.90;37.40;;;;;;8362630;28;19920;-43
2022/07/18 05:09:46;;;;;;;;;;;26.90;37.30;;;;;;8362438;28;20016;-43
2022/07/18 05:13:47;;;;;;;;;;;26.90;37.30;;;;;;8361684;28;19966;-43
2022/07/18 05:17:47;;;;;;;;;;;26.90;37.30;;;;;;8362148;28;19937;-42
2022/07/18 05:21:48;;;;;;;;;;;26.90;37.40;;;;;;8362226;28;19921;-43
2022/07/18 05:25:48;;;;;;;;;;;26.90;37.30;;;;;;8361868;28;19913;-43
2022/07/18 05:29:49;;;;;;;;;;;26.90;37.30;;;;;;8345931;28;19924;-43
2022/07/18 05:33:49;;;;;;;;;;;26.90;37.20;;;;;;8367933;28;19928;-43
2022/07/18 05:37:49;;;;;;;;;;;26.90;37.20;;;;;;8367082;28;19916;-43
2022/07/18 05:41:50;;;;;;;;;;;26.90;37.10;;;;;;8367575;28;19917;-43
2022/07/18 05:45:50;;;;;;;;;;;26.90;37.10;;;;;;8367612;28;20270;-43
2022/07/18 05:49:51;;;;;;;;;;;27.00;37.10;;;;;;8366830;28;19920;-42
2022/07/18 05:53:51;;;;;;;;;;;27.00;37.10;;;;;;8366862;28;19929;-43
2022/07/18 05:57:52;;;;;;;;;;;26.90;37.00;;;;;;8366976;28;19924;-43
2022/07/18 06:01:52;;;;;;;;;;;26.90;37.00;;;;;;8366671;28;20388;-43
2022/07/18 06:05:53;;;;;;;;;;;26.90;37.10;;;;;;8367241;28;20281;-43
2022/07/18 06:09:53;;;;;;;;;;;26.90;37.10;;;;;;8366986;28;19917;-43
2022/07/18 06:13:53;;;;;;;;;;;26.90;37.10;;;;;;8366408;28;20012;-43
2022/07/18 06:17:54;;;;;;;;;;;26.90;37.10;;;;;;8366620;28;19913;-43
2022/07/18 06:21:54;;;;;;;;;;;26.90;37.10;;;;;;8366690;28;19944;-43
2022/07/18 06:25:55;;;;;;;;;;;26.90;37.10;;;;;;8366226;28;20012;-42
2022/07/18 06:29:56;;;;;;;;;;;26.80;37.60;;;;;;8366543;28;19916;-43
2022/07/18 06:33:57;;;;;;;;;;;26.80;37.10;;;;;;8366027;28;19975;-43
2022/07/18 06:37:57;;;;;;;;;;;26.80;37.10;;;;;;8365302;28;19916;-44
2022/07/18 06:41:58;;;;;;;;;;;26.80;37.10;;;;;;8364894;28;19913;-42
2022/07/18 06:45:58;;;;;;;;;;;26.80;37.00;;;;;;8365645;28;20356;-44
2022/07/18 06:49:59;;;;;;;;;;;26.80;37.10;;;;;;8364775;28;19924;-42
2022/07/18 06:54:00;;;;;;;;;;;26.90;37.10;;;;;;8365329;28;20374;-42
2022/07/18 06:58:00;;;;;;;;;;;26.80;37.00;;;;;;8365645;28;19913;-44
2022/07/18 07:02:01;;;;;;;;;;;26.80;37.00;;;;;;8365239;28;19928;-43
2022/07/18 07:06:02;;;;;;;;;;;26.80;37.00;;;;;;8363937;28;19921;-43
2022/07/18 07:10:02;;;;;;;;;;;26.80;37.00;;;;;;8365185;28;19971;-43
2022/07/18 07:14:03;;;;;;;;;;;26.80;37.00;;;;;;8363855;28;19925;-43
2022/07/18 07:18:03;;;;;;;;;;;26.80;37.00;;;;;;8364887;28;19916;-43
2022/07/18 07:22:04;;;;;;;;;;;26.80;37.00;;;;;;8364843;28;19925;-42
2022/07/18 07:26:05;;;;;;;;;;;26.80;37.00;;;;;;8363738;28;19917;-43
2022/07/18 07:30:05;;;;;;;;;;;26.80;37.00;;;;;;8364630;28;20275;-43
2022/07/18 07:34:06;;;;;;;;;;;26.80;37.00;;;;;;8364026;28;19932;-43
2022/07/18 07:38:06;;;;;;;;;;;26.80;37.00;;;;;;8363436;28;19917;-43
2022/07/18 07:42:07;;;;;;;;;;;26.80;37.00;;;;;;8364182;28;19919;-42
2022/07/18 07:46:07;;;;;;;;;;;26.80;37.00;;;;;;8363983;28;19924;-43
2022/07/18 07:50:09;;;;;;;;;;;26.80;37.10;;;;;;8363348;28;19917;-43
2022/07/18 07:54:09;;;;;;;;;;;26.80;37.10;;;;;;8363324;28;19928;-43
2022/07/18 07:58:10;;;;;;;;;;;26.90;37.20;;;;;;8363655;28;20435;-42
2022/07/18 08:02:10;;;;;;;;;;;26.80;37.10;;;;;;8363333;28;19958;-43
2022/07/18 08:06:11;;;;;;;;;;;26.90;37.10;;;;;;8363615;28;19920;-43
2022/07/18 08:10:11;;;;;;;;;;;26.90;37.20;;;;;;8363070;28;19928;-44
2022/07/18 08:14:12;;;;;;;;;;;26.90;37.10;;;;;;8362659;28;20296;-42
2022/07/18 08:18:12;;;;;;;;;;;26.90;37.10;;;;;;8363172;28;20007;-43
2022/07/18 08:22:13;;;;;;;;;;;26.90;37.20;;;;;;8363451;28;20016;-43
2022/07/18 08:26:13;;;;;;;;;;;27.00;37.30;;;;;;8362614;28;19917;-42
2022/07/18 08:30:14;;;;;;;;;;;27.00;37.30;;;;;;8363149;28;20007;-42
2022/07/18 08:34:14;;;;;;;;;;;27.00;37.30;;;;;;8362985;28;19927;-42
2022/07/18 08:38:15;;;;;;;;;;;27.00;37.30;;;;;;8362372;28;19916;-43
2022/07/18 08:42:16;;;;;;;;;;;27.00;37.30;;;;;;8363227;28;19913;-43
2022/07/18 08:46:19;;;;;;;;;;;27.00;37.30;;;;;;8362832;28;20346;-44
2022/07/18 08:50:20;;;;;;;;;;;27.00;37.30;;;;;;8362177;28;19924;-43
2022/07/18 08:54:21;;;;;;;;;;;27.00;37.30;;;;;;8362603;28;19929;-43
2022/07/18 08:58:21;;;;;;;;;;;27.10;37.40;;;;;;8362589;28;19974;-43
2022/07/18 09:02:26;;;;;;;;;;;27.10;37.40;;;;;;8362382;28;19913;-43
2022/07/18 09:06:26;;;;;;;;;;;27.10;37.40;;;;;;8367197;28;19916;-43
2022/07/18 09:10:39;;;;;;;;;;;27.10;37.40;;;;;;8368670;28;20377;-43
2022/07/18 09:14:41;;;;;;;;;;;27.10;37.40;;;;;;8368387;28;19924;-44
2022/07/18 09:18:45;;;;;;;;;;;27.20;37.40;;;;;;8368544;28;19952;-44
2022/07/18 09:22:49;;;;;;;;;;;27.20;37.40;;;;;;8368235;28;19917;-43
2022/07/18 09:26:50;;;;;;;;;;;27.20;37.40;;;;;;8368307;28;19944;-43
2022/07/18 09:30:51;;;;;;;;;;;27.20;37.40;;;;;;8368243;28;20011;-43
2022/07/18 09:34:51;;;;;;;;;;;27.20;37.40;;;;;;8367801;28;20405;-43
2022/07/18 09:38:52;;;;;;;;;;;27.20;37.40;;;;;;8367899;28;19920;-43
2022/07/18 09:43:03;;;;;;;;;;;27.30;37.50;;;;;;8368096;28;19923;-43
2022/07/18 09:47:04;;;;;;;;;;;27.30;37.40;;;;;;8367275;28;19917;-44
2022/07/18 09:51:06;;;;;;;;;;;27.30;37.50;;;;;;8367521;28;19917;-42
2022/07/18 09:55:07;;;;;;;;;;;27.30;37.50;;;;;;8367606;28;19913;-43
2022/07/18 09:59:07;;;;;;;;;;;27.40;37.50;;;;;;8390508;28;19924;-43
2022/07/18 10:03:08;;;;;;;;;;;27.40;37.50;;;;;;8365831;28;19924;-43
2022/07/18 10:07:09;;;;;;;;;;;27.40;37.40;;;;;;8367145;28;20024;-43
2022/07/18 10:11:09;;;;;;;;;;;27.40;37.40;;;;;;8366521;28;19924;-43
2022/07/18 10:15:10;;;;;;;;;;;27.40;37.40;;;;;;8366606;28;20374;-43
2022/07/18 10:19:11;;;;;;;;;;;27.50;37.40;;;;;;8366840;28;19968;-43
2022/07/18 10:23:19;;;;;;;;;;;27.50;37.40;;;;;;8366531;28;19920;-44
2022/07/18 10:27:20;;;;;;;;;;;27.50;37.40;;;;;;8366533;28;19925;-43
2022/07/18 10:31:21;;;;;;;;;;;27.50;37.30;;;;;;8366353;28;19927;-43
2022/07/18 10:35:42;;;;;;;;;;;27.60;37.40;;;;;;8365985;28;19928;-44
2022/07/18 10:39:44;;;;;;;;;;;27.60;37.40;;;;;;8366073;28;20344;-43
2022/07/18 10:43:45;;;;;;;;;;;27.60;37.40;;;;;;8365559;28;19928;-43
2022/07/18 10:47:46;;;;;;;;;;;27.60;37.40;;;;;;8366317;28;19917;-43
2022/07/18 10:51:47;;;;;;;;;;;27.60;37.40;;;;;;8365575;28;20443;-43
2022/07/18 10:55:47;;;;;;;;;;;27.70;37.40;;;;;;8365225;28;20000;-43
2022/07/18 11:00:08;;;;;;;;;;;27.70;37.40;;;;;;8365863;28;19975;-43
2022/07/18 11:04:21;;;;;;;;;;;27.70;37.40;;;;;;8365534;28;20008;-43
2022/07/18 11:08:24;;;;;;;;;;;27.80;37.40;;;;;;8364920;28;19923;-44
2022/07/18 11:12:26;;;;;;;;;;;27.80;37.40;;;;;;8363874;28;19925;-43
2022/07/18 11:16:26;;;;;;;;;;;27.80;37.10;;;;;;8361802;28;19921;-42
2022/07/18 11:20:27;;;;;;;;;;;27.80;37.20;;;;;;8361185;28;19927;-42
2022/07/18 11:24:27;;;;;;;;;;;27.90;36.40;;;;;;8362260;28;20083;-44
2022/07/18 11:28:28;;;;;;;;;;;27.90;36.00;;;;;;8362402;28;19916;-43
2022/07/18 11:32:28;;;;;;;;;;;28.00;36.50;;;;;;8363850;28;19925;-42
2022/07/18 11:36:30;;;;;;;;;;;28.00;36.00;;;;;;8364612;28;19917;-43
2022/07/18 11:40:31;;;;;;;;;;;28.10;33.50;;;;;;8364148;28;19917;-43
2022/07/18 11:44:32;;;;;;;;;;;28.20;33.00;;;;;;8363653;28;19943;-44
2022/07/18 11:48:34;;;;;;;;;;;28.30;32.80;;;;;;8364175;28;19917;-44
2022/07/18 11:52:34;;;;;;;;;;;28.20;33.50;;;;;;8363385;28;20369;-43
2022/07/18 11:56:44;;;;;;;;;;;28.30;34.30;;;;;;8364081;28;19940;-44
2022/07/18 12:00:45;;;;;;;;;;;28.30;34.60;;;;;;8364027;28;20377;-43
2022/07/18 12:04:46;;;;;;;;;;;28.20;34.90;;;;;;8363131;28;20297;-43
2022/07/18 12:08:47;;;;;;;;;;;28.20;35.00;;;;;;8363577;28;19967;-43
2022/07/18 12:12:48;;;;;;;;;;;28.20;35.20;;;;;;8363392;28;19928;-43
2022/07/18 12:16:56;;;;;;;;;;;28.20;35.40;;;;;;8362995;28;20004;-44
2022/07/18 12:21:06;;;;;;;;;;;28.20;35.50;;;;;;8363313;28;19923;-45
2022/07/18 12:25:08;;;;;;;;;;;28.20;35.60;;;;;;8363519;28;19924;-43
2022/07/18 12:29:09;;;;;;;;;;;28.30;35.70;;;;;;8362904;28;20280;-43
2022/07/18 12:33:09;;;;;;;;;;;28.30;35.80;;;;;;8363225;28;19925;-43
2022/07/18 12:37:10;;;;;;;;;;;28.30;35.80;;;;;;8363043;28;19924;-43
2022/07/18 12:41:10;;;;;;;;;;;28.30;35.90;;;;;;8366789;28;19964;-44
2022/07/18 12:45:11;;;;;;;;;;;28.30;35.90;;;;;;8370051;28;20058;-43
2022/07/18 12:49:11;;;;;;;;;;;28.30;35.90;;;;;;8370141;28;19963;-43
2022/07/18 12:53:12;;;;;;;;;;;28.40;36.00;;;;;;8368963;28;19999;-44
2022/07/18 12:57:13;;;;;;;;;;;28.40;35.90;;;;;;8369622;28;19917;-43
2022/07/18 13:01:13;;;;;;;;;;;28.40;36.00;;;;;;8369481;28;19916;-43
2022/07/18 13:05:14;;;;;;;;;;;28.40;36.00;;;;;;8368655;28;19917;-44
2022/07/18 13:09:14;;;;;;;;;;;28.40;36.00;;;;;;8368345;28;19920;-44
2022/07/18 13:13:15;;;;;;;;;;;28.40;36.00;;;;;;8368585;28;19925;-43
2022/07/18 13:17:15;;;;;;;;;;;28.50;36.10;;;;;;8368010;28;19956;-44
2022/07/18 13:21:18;;;;;;;;;;;28.50;36.10;;;;;;8362964;28;19971;-43
2022/07/18 13:25:19;;;;;;;;;;;28.50;36.20;;;;;;8346991;28;19963;-44
2022/07/18 13:29:20;;;;;;;;;;;28.50;36.20;;;;;;8368029;28;19963;-44
2022/07/18 13:33:20;;;;;;;;;;;28.50;35.90;;;;;;8350108;28;19925;-44
2022/07/18 13:37:21;;;;;;;;;;;28.50;36.20;;;;;;8368140;28;20397;-44
2022/07/18 13:41:21;;;;;;;;;;;28.50;36.20;;;;;;8367434;28;19921;-43
2022/07/18 13:45:22;;;;;;;;;;;28.60;36.30;;;;;;8367657;28;20396;-43
2022/07/18 13:49:22;;;;;;;;;;;28.60;36.00;;;;;;8367749;28;19920;-43
2022/07/18 13:53:23;;;;;;;;;;;28.60;35.80;;;;;;8366306;28;19925;-43
2022/07/18 13:57:23;;;;;;;;;;;28.60;36.00;;;;;;8367235;28;20048;-45
2022/07/18 14:01:24;;;;;;;;;;;28.60;35.90;;;;;;8367198;28;19916;-44
2022/07/18 14:05:25;;;;;;;;;;;28.60;36.20;;;;;;8366607;28;19916;-43
2022/07/18 14:09:25;;;;;;;;;;;28.60;36.20;;;;;;8365494;28;19966;-44
2022/07/18 14:13:26;;;;;;;;;;;28.70;36.40;;;;;;8361790;28;20337;-44
2022/07/18 14:17:26;;;;;;;;;;;28.70;36.30;;;;;;8365981;28;19917;-45
2022/07/18 14:21:26;;;;;;;;;;;28.70;36.40;;;;;;8366619;28;20016;-43
2022/07/18 14:25:27;;;;;;;;;;;28.70;36.30;;;;;;8361424;28;19927;-45
2022/07/18 14:29:27;;;;;;;;;;;28.70;36.20;;;;;;8349858;28;19917;-44
2022/07/18 14:33:28;;;;;;;;;;;28.70;36.30;;;;;;8361001;28;19924;-43
2022/07/18 14:37:28;;;;;;;;;;;28.80;36.10;;;;;;8366127;28;19953;-43
2022/07/18 14:41:29;;;;;;;;;;;28.70;36.30;;;;;;8365468;28;20059;-44
2022/07/18 14:45:30;;;;;;;;;;;28.80;36.30;;;;;;8365848;28;19919;-43
2022/07/18 14:49:30;;;;;;;;;;;28.80;36.30;;;;;;8366049;28;19913;-44
2022/07/18 14:53:31;;;;;;;;;;;28.80;36.30;;;;;;8364921;28;19971;-45
2022/07/18 14:57:32;;;;;;;;;;;28.80;36.20;;;;;;8365638;28;19921;-43
2022/07/18 15:01:32;;;;;;;;;;;28.80;36.30;;;;;;8364460;28;19927;-44
2022/07/18 15:05:33;;;;;;;;;;;28.80;36.20;;;;;;8365127;28;19913;-45
2022/07/18 15:09:33;;;;;;;;;;;28.80;36.30;;;;;;8365450;28;19912;-44
2022/07/18 15:13:34;;;;;;;;;;;28.80;36.30;;;;;;8364580;28;19975;-43
2022/07/18 15:17:35;;;;;;;;;;;28.80;36.40;;;;;;8364873;28;19917;-44
2022/07/18 15:21:35;;;;;;;;;;;28.90;36.40;;;;;;8358258;28;19917;-44
2022/07/18 15:25:35;;;;;;;;;;;28.90;36.40;;;;;;8363973;28;19912;-44
2022/07/18 15:29:36;;;;;;;;;;;28.90;36.50;;;;;;8364595;28;19913;-43
2022/07/18 15:33:37;;;;;;;;;;;28.90;36.40;;;;;;8354583;28;20461;-44
2022/07/18 15:37:37;;;;;;;;;;;28.90;36.50;;;;;;8347923;28;19916;-43
2022/07/18 15:41:38;;;;;;;;;;;28.90;36.50;;;;;;8363916;28;20267;-43
2022/07/18 15:45:38;;;;;;;;;;;28.90;36.40;;;;;;8364053;28;19913;-44
2022/07/18 15:49:38;;;;;;;;;;;28.90;36.40;;;;;;8361992;28;20366;-44
2022/07/18 15:53:39;;;;;;;;;;;28.90;36.50;;;;;;8355559;28;20011;-44
2022/07/18 15:57:40;;;;;;;;;;;28.90;36.50;;;;;;8363704;28;19917;-43
2022/07/18 16:01:42;;;;;;;;;;;28.90;36.50;;;;;;8362936;28;20003;-44
2022/07/18 16:05:42;;;;;;;;;;;28.90;36.50;;;;;;8364204;28;19917;-43
2022/07/18 16:09:43;;;;;;;;;;;28.90;36.50;;;;;;8362447;28;19924;-44
2022/07/18 16:13:43;;;;;;;;;;;28.90;36.50;;;;;;8362695;28;19979;-45
2022/07/18 16:17:44;;;;;;;;;;;28.90;36.50;;;;;;8363366;28;19921;-44
2022/07/18 16:21:44;;;;;;;;;;;28.90;36.50;;;;;;8363234;28;19975;-43
2022/07/18 16:25:45;;;;;;;;;;;28.90;36.60;;;;;;8362852;28;20321;-43
2022/07/18 16:29:45;;;;;;;;;;;28.90;36.60;;;;;;8363192;28;20358;-45
2022/07/18 16:33:46;;;;;;;;;;;28.90;36.60;;;;;;8362863;28;20008;-44
2022/07/18 16:37:48;;;;;;;;;;;28.90;36.60;;;;;;8362885;28;20008;-46
2022/07/18 16:41:48;;;;;;;;;;;28.90;36.60;;;;;;8362943;28;19917;-45
2022/07/18 16:45:49;;;;;;;;;;;29.00;36.70;;;;;;8362875;28;19919;-44
2022/07/18 16:49:50;;;;;;;;;;;28.90;36.40;;;;;;8362417;28;20003;-45
2022/07/18 16:53:50;;;;;;;;;;;28.90;36.60;;;;;;8362805;28;19925;-45
2022/07/18 16:57:51;;;;;;;;;;;29.00;36.70;;;;;;8362613;28;19924;-46
2022/07/18 17:01:51;;;;;;;;;;;29.00;36.70;;;;;;8361006;28;19917;-44
2022/07/18 17:05:52;;;;;;;;;;;29.00;36.80;;;;;;8362811;28;19924;-44
2022/07/18 17:09:53;;;;;;;;;;;29.00;36.70;;;;;;8362737;28;19924;-47
2022/07/18 17:13:53;;;;;;;;;;;29.00;36.70;;;;;;8361941;28;19925;-45
2022/07/18 17:17:56;;;;;;;;;;;29.00;36.60;;;;;;8362338;28;19916;-45
2022/07/18 17:21:56;;;;;;;;;;;29.00;36.60;;;;;;8362195;28;20000;-45
2022/07/18 17:25:57;;;;;;;;;;;29.00;36.70;;;;;;8364085;28;19938;-45
2022/07/18 17:29:57;;;;;;;;;;;29.00;36.60;;;;;;8395996;28;19923;-45
2022/07/18 17:33:58;;;;;;;;;;;29.00;36.40;;;;;;8379214;28;19925;-45
2022/07/18 17:37:59;;;;;;;;;;;29.00;36.60;;;;;;8367167;28;19917;-46
2022/07/18 17:42:00;;;;;;;;;;;29.00;36.60;;;;;;8367947;28;19912;-45
2022/07/18 17:46:01;;;;;;;;;;;29.00;36.80;;;;;;8367680;28;19923;-46
2022/07/18 17:50:01;;;;;;;;;;;29.00;36.80;;;;;;8367284;28;19952;-45
2022/07/18 17:54:02;;;;;;;;;;;29.00;36.60;;;;;;8367432;28;19938;-44
2022/07/18 17:58:02;;;;;;;;;;;29.00;36.60;;;;;;8367299;28;19917;-45
2022/07/18 18:02:03;;;;;;;;;;;29.00;36.30;;;;;;8366940;28;19924;-45
2022/07/18 18:06:03;;;;;;;;;;;29.00;36.60;;;;;;8367877;28;19913;-44
2022/07/18 18:10:04;;;;;;;;;;;29.00;36.70;;;;;;8367248;28;20000;-44
2022/07/18 18:14:05;;;;;;;;;;;29.00;36.60;;;;;;8366508;28;19956;-44
2022/07/18 18:18:06;;;;;;;;;;;29.00;36.40;;;;;;8362208;28;19913;-45
2022/07/18 18:22:06;;;;;;;;;;;29.00;36.30;;;;;;8366446;28;20010;-44
2022/07/18 18:26:07;;;;;;;;;;;29.00;36.50;;;;;;8366238;28;19917;-44
2022/07/18 18:30:10;;;;;;;;;;;29.00;36.30;;;;;;8366515;28;19939;-44
2022/07/18 18:34:11;;;;;;;;;;;29.00;36.50;;;;;;8366535;28;20351;-44
2022/07/18 18:38:11;;;;;;;;;;;29.00;36.60;;;;;;8365531;28;19924;-44
2022/07/18 18:42:12;;;;;;;;;;;29.00;36.50;;;;;;8365899;28;19924;-44
2022/07/18 18:46:12;;;;;;;;;;;29.00;36.30;;;;;;8348361;28;19998;-44
2022/07/18 18:50:13;;;;;;;;;;;29.00;36.50;;;;;;8365368;28;19916;-44
2022/07/18 18:54:14;;;;;;;;;;;29.00;36.40;;;;;;8365446;28;19948;-44
2022/07/18 18:58:14;;;;;;;;;;;29.00;36.30;;;;;;8365555;28;19913;-44
2022/07/18 19:02:15;;;;;;;;;;;28.90;36.30;;;;;;8339699;28;19924;-44
2022/07/18 19:06:15;;;;;;;;;;;28.90;36.40;;;;;;8364801;28;19948;-44
2022/07/18 19:10:16;;;;;;;;;;;28.90;36.30;;;;;;8365080;28;19999;-44
2022/07/18 19:14:16;;;;;;;;;;;29.00;36.50;;;;;;8364713;28;19924;-44
2022/07/18 19:18:17;;;;;;;;;;;29.00;36.50;;;;;;8364612;28;19916;-44
2022/07/18 19:22:18;;;;;;;;;;;29.00;36.50;;;;;;8364927;28;20293;-44
2022/07/18 19:26:19;;;;;;;;;;;29.00;36.50;;;;;;8367440;28;19916;-44
2022/07/18 19:30:19;;;;;;;;;;;29.00;36.50;;;;;;8351059;28;19925;-44
2022/07/18 19:34:20;;;;;;;;;;;28.90;36.30;;;;;;8350179;28;20321;-44
2022/07/18 19:38:20;;;;;;;;;;;28.90;36.20;;;;;;8363771;28;19917;-43
2022/07/18 19:42:23;;;;;;;;;;;28.90;36.20;;;;;;8363763;28;21261;-44
2022/07/18 19:46:23;;;;;;;;;;;28.90;36.20;;;;;;8364301;28;19924;-44
2022/07/18 19:50:23;;;;;;;;;;;28.90;36.40;;;;;;8362089;28;19928;-44
2022/07/18 19:54:24;;;;;;;;;;;28.90;36.40;;;;;;8364293;28;19932;-44
2022/07/18 19:58:25;;;;;;;;;;;28.90;36.40;;;;;;8363866;28;19921;-45
2022/07/18 20:02:25;;;;;;;;;;;28.90;36.50;;;;;;8363258;28;19919;-44
2022/07/18 20:06:25;;;;;;;;;;;28.90;36.60;;;;;;8364191;28;20377;-44
2022/07/18 20:10:26;;;;;;;;;;;28.90;36.60;;;;;;8363567;28;19917;-44
2022/07/18 20:14:27;;;;;;;;;;;28.90;36.60;;;;;;8363088;28;20023;-44
2022/07/18 20:18:27;;;;;;;;;;;28.80;36.60;;;;;;8363472;28;19916;-44
2022/07/18 20:22:28;;;;;;;;;;;28.80;36.60;;;;;;8363380;28;19917;-44
2022/07/18 20:26:28;;;;;;;;;;;28.80;36.70;;;;;;8362872;28;20366;-45
2022/07/18 20:30:32;;;;;;;;;;;28.80;36.70;;;;;;8363328;28;19917;-44
2022/07/18 20:34:33;;;;;;;;;;;28.80;36.70;;;;;;8363253;28;19920;-44
2022/07/18 20:38:34;;;;;;;;;;;28.80;36.70;;;;;;8363091;28;19917;-44
2022/07/18 20:42:34;;;;;;;;;;;28.80;36.70;;;;;;8363282;28;20391;-45
2022/07/18 20:46:35;;;;;;;;;;;28.80;36.70;;;;;;8362583;28;20401;-42
2022/07/18 20:50:36;;;;;;;;;;;28.80;36.70;;;;;;8363256;28;19917;-44
2022/07/18 20:54:37;;;;;;;;;;;28.80;36.70;;;;;;8363016;28;19983;-44
2022/07/18 20:58:37;;;;;;;;;;;28.70;36.70;;;;;;8362313;28;19955;-44
2022/07/18 21:02:37;;;;;;;;;;;28.80;36.70;;;;;;8367809;28;19912;-43
2022/07/18 21:06:38;;;;;;;;;;;28.80;36.80;;;;;;8369199;28;19917;-45
2022/07/18 21:10:38;;;;;;;;;;;28.80;36.70;;;;;;8363941;28;19913;-44
2022/07/18 21:18:58;;;;;;;;;;;28.70;36.70;;;;;;8369413;28;19962;-43
2022/07/18 21:22:59;;;;;;;;;;;28.70;36.70;;;;;;8368371;28;20286;-44
2022/07/18 21:26:59;;;;;;;;;;;28.70;36.80;;;;;;8368897;28;19981;-44
2022/07/18 21:31:00;;;;;;;;;;;28.70;36.80;;;;;;8368617;28;19916;-45
2022/07/18 21:35:00;;;;;;;;;;;28.70;36.80;;;;;;8367963;28;19931;-44
2022/07/18 21:39:02;;;;;;;;;;;28.70;36.80;;;;;;8368224;28;20008;-45
2022/07/18 21:43:02;;;;;;;;;;;28.70;37.30;;;;;;8368267;28;19924;-44
2022/07/18 21:47:03;;;;;;;;;;;28.70;36.80;;;;;;8367748;28;19927;-46
2022/07/18 21:51:03;;;;;;;;;;;28.70;36.90;;;;;;8368235;28;19924;-45
2022/07/18 21:55:05;;;;;;;;;;;28.70;36.80;;;;;;8367672;28;19921;-48
2022/07/18 21:59:05;;;;;;;;;;;28.70;36.80;;;;;;8367441;28;19916;-45
2022/07/18 22:03:06;;;;;;;;;;;28.70;36.90;;;;;;8366843;28;19912;-44
2022/07/18 22:07:06;;;;;;;;;;;28.60;36.80;;;;;;8367466;28;20374;-46
2022/07/18 22:11:06;;;;;;;;;;;28.60;36.90;;;;;;8365073;28;19916;-44
2022/07/18 22:15:09;;;;;;;;;;;28.70;36.90;;;;;;8367082;28;20366;-44
2022/07/18 22:19:09;;;;;;;;;;;28.60;36.90;;;;;;8349471;28;20354;-44
2022/07/18 22:23:10;;;;;;;;;;;28.60;36.80;;;;;;8366667;28;20016;-44
2022/07/18 22:27:10;;;;;;;;;;;28.60;36.90;;;;;;8366838;28;19916;-44
2022/07/18 22:31:11;;;;;;;;;;;28.60;36.90;;;;;;8366579;28;19916;-44
2022/07/18 22:35:12;;;;;;;;;;;28.60;36.90;;;;;;8366044;28;19964;-44
2022/07/18 22:39:12;;;;;;;;;;;28.60;36.90;;;;;;8366745;28;19948;-44
2022/07/18 22:43:12;;;;;;;;;;;28.60;36.90;;;;;;8348546;28;19966;-44
2022/07/18 22:47:13;;;;;;;;;;;28.60;36.90;;;;;;8365676;28;19921;-43
2022/07/18 22:51:13;;;;;;;;;;;28.60;36.90;;;;;;8365899;28;19917;-45
2022/07/18 22:55:14;;;;;;;;;;;28.60;36.90;;;;;;8365761;28;19920;-44
2022/07/18 22:59:15;;;;;;;;;;;28.60;36.90;;;;;;8365322;28;19985;-44
2022/07/18 23:03:15;;;;;;;;;;;28.60;37.00;;;;;;8365803;28;19959;-44
2022/07/18 23:07:16;;;;;;;;;;;28.50;37.00;;;;;;8365583;28;19924;-44
2022/07/18 23:11:16;;;;;;;;;;;28.50;37.00;;;;;;8364867;28;19923;-45
2022/07/18 23:15:17;;;;;;;;;;;28.50;37.00;;;;;;8365096;28;19925;-44
2022/07/18 23:19:17;;;;;;;;;;;28.50;37.00;;;;;;8365270;28;19916;-44
2022/07/18 23:23:18;;;;;;;;;;;28.50;37.00;;;;;;8363963;28;19913;-46
2022/07/18 23:27:18;;;;;;;;;;;28.50;37.00;;;;;;8364885;28;19916;-46